createdAt,value
2023-03-12T00:01:38.053Z,5.60
2023-03-12T00:06:38.239Z,7.50
2023-03-12T00:11:37.512Z,5.20
2023-03-12T00:16:37.188Z,8.40
2023-03-12T00:21:36.887Z,8.40
2023-03-12T00:26:36.485Z,7.10
2023-03-12T00:31:37.107Z,6.00
2023-03-12T00:36:37.334Z,6.90
2023-03-12T00:41:36.445Z,10.00
2023-03-12T00:46:35.698Z,10.70
2023-03-12T00:51:35.471Z,12.20
2023-03-12T00:56:34.833Z,7.60
2023-03-12T01:01:34.745Z,9.50
2023-03-12T01:06:35.001Z,12.10
2023-03-12T01:11:35.279Z,10.70
2023-03-12T01:16:35.472Z,10.80
2023-03-12T01:21:40.459Z,10.30
2023-03-12T01:26:40.532Z,11.00
2023-03-12T01:31:39.529Z,9.80
2023-03-12T01:36:38.480Z,11.70
2023-03-12T01:41:37.695Z,11.50
2023-03-12T01:46:43.268Z,8.40
2023-03-12T01:51:51.049Z,9.40
2023-03-12T01:56:52.995Z,13.30
2023-03-12T02:01:54.682Z,14.40
2023-03-12T02:07:04.179Z,11.00
2023-03-12T02:12:03.753Z,13.20
2023-03-12T02:17:03.977Z,10.40
2023-03-12T02:22:05.787Z,11.70
2023-03-12T02:27:07.883Z,11.60
2023-03-12T02:32:11.160Z,9.30
2023-03-12T02:37:10.901Z,11.40
2023-03-12T02:42:10.870Z,13.40
2023-03-12T02:47:10.894Z,14.50
2023-03-12T02:52:11.140Z,17.50
2023-03-12T02:57:10.893Z,10.40
2023-03-12T03:02:13.061Z,11.00
2023-03-12T03:07:12.723Z,10.70
2023-03-12T03:12:13.469Z,12.70
2023-03-12T03:17:12.970Z,8.90
2023-03-12T03:22:13.011Z,9.50
2023-03-12T03:27:13.479Z,5.30
2023-03-12T03:32:13.280Z,11.70
2023-03-12T03:37:12.793Z,13.70
2023-03-12T03:42:12.273Z,11.50
2023-03-12T03:47:12.346Z,10.20
2023-03-12T03:52:12.186Z,10.20
2023-03-12T03:57:11.374Z,8.90
2023-03-12T04:02:11.817Z,12.40
2023-03-12T04:07:11.048Z,9.00
2023-03-12T04:12:12.332Z,10.80
2023-03-12T04:17:13.432Z,9.00
2023-03-12T04:22:12.809Z,7.60
2023-03-12T04:27:12.121Z,5.90
2023-03-12T04:32:13.000Z,6.90
2023-03-12T04:37:14.047Z,8.30
2023-03-12T04:42:14.673Z,6.20
2023-03-12T04:47:15.397Z,8.40
2023-03-12T04:52:14.712Z,6.70
2023-03-12T04:57:14.600Z,7.60
2023-03-12T05:02:13.597Z,6.70
2023-03-12T05:07:14.029Z,7.90
2023-03-12T05:12:14.346Z,7.50
2023-03-12T05:17:13.961Z,7.70
2023-03-12T05:22:12.954Z,11.60
2023-03-12T05:27:12.211Z,9.00
2023-03-12T05:32:13.948Z,10.30
2023-03-12T05:37:13.245Z,8.10
2023-03-12T05:42:13.034Z,8.30
2023-03-12T05:47:13.495Z,9.40
2023-03-12T05:52:13.215Z,7.70
2023-03-12T05:57:13.664Z,7.00
2023-03-12T06:02:16.516Z,6.60
2023-03-12T06:07:16.461Z,7.20
2023-03-12T06:12:15.781Z,6.90
2023-03-12T06:17:15.213Z,5.50
2023-03-12T06:22:14.280Z,4.30
2023-03-12T06:27:13.325Z,7.70
2023-03-12T06:32:13.041Z,9.40
2023-03-12T06:37:12.819Z,5.20
2023-03-12T06:42:17.797Z,3.90
2023-03-12T06:47:17.774Z,6.30
2023-03-12T06:52:17.146Z,3.40
2023-03-12T06:57:17.431Z,3.60
2023-03-12T07:02:18.435Z,7.90
2023-03-12T07:07:20.223Z,3.10
2023-03-12T07:12:19.689Z,4.70
2023-03-12T07:17:19.192Z,4.40
2023-03-12T07:22:18.139Z,4.60
2023-03-12T07:27:17.032Z,3.90
2023-03-12T07:32:17.251Z,3.80
2023-03-12T07:37:15.777Z,3.40
2023-03-12T07:42:15.284Z,4.20
2023-03-12T07:47:23.627Z,4.10
2023-03-12T07:52:23.876Z,5.40
2023-03-12T07:57:23.481Z,3.00
2023-03-12T08:02:23.403Z,4.30
2023-03-12T08:07:23.656Z,4.40
2023-03-12T08:12:23.107Z,3.00
2023-03-12T08:17:23.018Z,4.50
2023-03-12T08:22:23.004Z,2.40
2023-03-12T08:27:22.459Z,1.90
2023-03-12T08:32:21.664Z,4.50
2023-03-12T08:37:20.463Z,4.10
2023-03-12T08:42:19.710Z,2.10
2023-03-12T08:47:19.018Z,4.00
2023-03-12T08:52:18.668Z,1.80
2023-03-12T08:57:18.554Z,1.50
2023-03-12T09:02:18.111Z,2.80
2023-03-12T09:07:18.913Z,1.50
2023-03-12T09:12:18.400Z,4.60
2023-03-12T09:17:23.098Z,2.80
2023-03-12T09:22:22.044Z,3.20
2023-03-12T09:27:21.267Z,3.60
2023-03-12T09:32:20.308Z,3.40
2023-03-12T09:37:23.600Z,3.30
2023-03-12T09:42:31.966Z,3.40
2023-03-12T09:47:36.919Z,3.90
2023-03-12T09:52:46.258Z,1.60
2023-03-12T09:57:47.980Z,2.40
2023-03-12T10:03:27.847Z,2.00
2023-03-12T10:08:45.653Z,3.80
2023-03-12T10:14:23.350Z,3.60
2023-03-12T10:19:46.016Z,2.20
2023-03-12T10:24:57.820Z,3.10
2023-03-12T10:29:59.155Z,1.80
2023-03-12T10:35:02.595Z,2.80
2023-03-12T10:40:02.521Z,3.70
2023-03-12T10:45:19.577Z,5.00
2023-03-12T10:50:26.379Z,3.60
2023-03-12T10:55:31.284Z,2.40
2023-03-12T11:00:34.380Z,2.70
2023-03-12T11:05:38.015Z,2.20
2023-03-12T11:10:51.892Z,3.70
2023-03-12T11:15:53.006Z,1.40
2023-03-12T11:20:53.821Z,2.10
2023-03-12T11:26:02.030Z,2.30
2023-03-12T11:31:03.666Z,3.10
2023-03-12T11:36:24.118Z,3.60
2023-03-12T11:41:47.146Z,1.80
2023-03-12T11:47:04.285Z,1.40
2023-03-12T11:52:13.294Z,4.40
2023-03-12T11:57:25.264Z,2.50
2023-03-12T12:08:20.355Z,1.70
2023-03-12T12:13:35.249Z,3.70
2023-03-12T12:18:57.270Z,4.90
2023-03-12T12:24:07.477Z,3.90
2023-03-12T12:29:29.799Z,5.20
2023-03-12T12:34:59.518Z,3.20
2023-03-12T12:40:12.776Z,4.00
2023-03-12T12:45:18.931Z,2.00
2023-03-12T12:50:27.395Z,2.00
2023-03-12T12:55:34.791Z,2.70
2023-03-12T13:00:45.644Z,1.80
2023-03-12T13:06:00.439Z,3.80
2023-03-12T13:11:17.150Z,3.90
2023-03-12T13:16:35.839Z,2.90
2023-03-12T13:21:48.144Z,4.50
2023-03-12T13:27:00.789Z,3.30
2023-03-12T13:32:00.538Z,2.70
2023-03-12T13:37:04.641Z,2.80
2023-03-12T13:42:25.611Z,1.60
2023-03-12T13:47:31.089Z,2.80
2023-03-12T13:52:34.315Z,2.40
2023-03-12T13:57:43.437Z,3.30
2023-03-12T14:02:53.580Z,2.40
2023-03-12T14:08:24.726Z,3.90
2023-03-12T14:13:41.669Z,3.20
2023-03-12T14:18:45.372Z,3.80
2023-03-12T14:23:51.256Z,3.80
2023-03-12T14:28:59.289Z,3.90
2023-03-12T14:34:05.670Z,4.00
2023-03-12T14:39:25.886Z,3.40
2023-03-12T14:44:31.234Z,4.40
2023-03-12T14:49:32.915Z,5.30
2023-03-12T14:54:32.619Z,4.40
2023-03-12T14:59:38.190Z,3.00
2023-03-12T15:04:39.368Z,4.30
2023-03-12T15:09:42.227Z,4.10
2023-03-12T15:14:45.556Z,3.00
2023-03-12T15:19:45.408Z,4.40
2023-03-12T15:24:45.269Z,6.20
2023-03-12T15:29:47.874Z,3.20
2023-03-12T15:34:48.180Z,3.00
2023-03-12T15:39:53.162Z,2.90
2023-03-12T15:44:56.911Z,3.90
2023-03-12T15:50:02.647Z,3.90
2023-03-12T15:55:30.157Z,2.90
2023-03-12T16:00:49.363Z,4.70
2023-03-12T16:05:50.059Z,3.10
2023-03-12T16:10:50.091Z,5.00
2023-03-12T16:15:50.155Z,5.00
2023-03-12T16:20:50.558Z,5.40
2023-03-12T16:25:53.264Z,6.30
2023-03-12T16:30:52.953Z,4.90
2023-03-12T16:35:52.785Z,2.90
2023-03-12T16:40:53.392Z,4.70
2023-03-12T16:45:56.859Z,6.90
2023-03-12T16:51:00.124Z,4.20
2023-03-12T16:56:02.832Z,6.00
2023-03-12T17:01:03.396Z,6.00
2023-03-12T17:06:03.142Z,4.20
2023-03-12T17:11:02.948Z,5.60
2023-03-12T17:16:01.608Z,5.10
2023-03-12T17:21:01.123Z,3.90
2023-03-12T17:26:01.023Z,5.90
2023-03-12T17:31:01.445Z,5.10
2023-03-12T17:36:08.724Z,4.00
2023-03-12T17:41:25.059Z,4.10
2023-03-12T17:46:25.327Z,6.00
2023-03-12T17:51:25.454Z,4.40
2023-03-12T17:56:25.462Z,3.40
2023-03-12T18:01:24.664Z,3.70
2023-03-12T18:06:23.764Z,8.90
2023-03-12T18:11:23.506Z,5.10
2023-03-12T18:16:23.180Z,6.70
2023-03-12T18:21:23.059Z,8.40
2023-03-12T18:26:22.301Z,7.40
2023-03-12T18:31:21.555Z,8.60
2023-03-12T18:36:21.511Z,7.30
2023-03-12T18:41:20.411Z,11.50
2023-03-12T18:46:19.718Z,10.60
2023-03-12T18:51:18.660Z,7.90
2023-03-12T18:56:18.339Z,4.80
2023-03-12T19:01:18.863Z,10.90
2023-03-12T19:06:19.859Z,7.30
2023-03-12T19:11:20.956Z,6.30
2023-03-12T19:16:23.217Z,6.90
2023-03-12T19:21:23.229Z,8.70
2023-03-12T19:26:22.731Z,9.00
2023-03-12T19:31:22.255Z,9.70
2023-03-12T19:36:22.023Z,10.40
2023-03-12T19:41:21.368Z,13.70
2023-03-12T19:46:20.704Z,6.10
2023-03-12T19:51:20.197Z,12.00
2023-03-12T19:56:20.721Z,10.70
2023-03-12T20:01:21.307Z,7.20
2023-03-12T20:06:20.649Z,10.80
2023-03-12T20:11:20.082Z,11.20
2023-03-12T20:16:21.231Z,13.70
2023-03-12T20:21:23.989Z,12.70
2023-03-12T20:26:23.629Z,9.90
2023-03-12T20:31:22.958Z,12.80
2023-03-12T20:36:21.938Z,12.90
2023-03-12T20:41:21.187Z,7.70
2023-03-12T20:46:20.950Z,11.50
2023-03-12T20:51:20.848Z,11.90
2023-03-12T20:56:19.834Z,12.70
2023-03-12T21:01:19.945Z,10.90
2023-03-12T21:06:18.820Z,13.90
2023-03-12T21:11:18.151Z,12.90
2023-03-12T21:16:17.689Z,9.90
2023-03-12T21:21:17.381Z,12.60
2023-03-12T21:26:18.552Z,10.70
2023-03-12T21:31:21.132Z,10.50
2023-03-12T21:36:20.031Z,10.70
2023-03-12T21:41:20.590Z,16.60
2023-03-12T21:46:24.987Z,18.60
2023-03-12T21:51:27.064Z,20.40
2023-03-12T21:56:30.497Z,27.80
2023-03-12T22:01:29.728Z,25.50
2023-03-12T22:06:29.235Z,26.80
2023-03-12T22:11:28.183Z,24.60
2023-03-12T22:16:27.945Z,26.50
2023-03-12T22:21:28.455Z,20.50
2023-03-12T22:26:28.922Z,20.70
2023-03-12T22:31:29.862Z,21.20
2023-03-12T22:36:29.351Z,21.50
2023-03-12T22:41:31.263Z,19.20
2023-03-12T22:46:30.870Z,24.20
2023-03-12T22:51:31.949Z,23.60
2023-03-12T22:56:31.945Z,21.90
2023-03-12T23:01:31.850Z,16.60
2023-03-12T23:06:32.637Z,20.60
2023-03-12T23:11:32.583Z,16.80
2023-03-12T23:16:32.504Z,19.90
2023-03-12T23:21:36.519Z,17.80
2023-03-12T23:26:34.949Z,14.00
2023-03-12T23:31:35.006Z,18.40
2023-03-12T23:36:34.346Z,18.20
2023-03-12T23:41:34.166Z,21.00
2023-03-12T23:46:35.228Z,24.30
2023-03-12T23:51:35.707Z,19.40
2023-03-12T23:56:40.285Z,20.20
